createdAt,value
2022-10-11T00:00:53.412Z,101760.88
2022-10-11T00:03:20.718Z,101755.72
2022-10-11T00:05:47.548Z,101749.63
2022-10-11T00:08:14.471Z,101756.53
2022-10-11T00:10:41.348Z,101759.31
2022-10-11T00:13:08.513Z,101769.13
2022-10-11T00:15:35.424Z,101766.47
2022-10-11T00:18:05.208Z,101768.91
2022-10-11T00:20:32.150Z,101765.31
2022-10-11T00:22:58.823Z,101768.44
2022-10-11T00:25:25.742Z,101760.44
2022-10-11T00:27:52.375Z,101767.41
2022-10-11T00:30:19.115Z,101765.31
2022-10-11T00:32:45.708Z,101759.66
2022-10-11T00:35:12.287Z,101757.28
2022-10-11T00:37:39.435Z,101762.72
2022-10-11T00:40:10.032Z,101757.44
2022-10-11T00:42:36.788Z,101757.28
2022-10-11T00:45:42.499Z,101758.22
2022-10-11T00:48:17.301Z,101754.66
2022-10-11T00:50:44.012Z,101754.63
2022-10-11T00:53:12.267Z,101750.34
2022-10-11T00:55:50.937Z,101746.47
2022-10-11T00:58:18.731Z,101751.94
2022-10-11T01:00:45.445Z,101748.66
2022-10-11T01:03:12.298Z,101743.22
2022-10-11T01:05:40.004Z,101742.28
2022-10-11T01:08:08.302Z,101746.06
2022-10-11T01:10:35.356Z,101741.78
2022-10-11T01:13:38.544Z,101741.84
2022-10-11T01:16:17.340Z,101744.63
2022-10-11T01:19:04.457Z,101747.28
2022-10-11T01:21:48.290Z,101736.56
2022-10-11T01:24:40.774Z,101745.53
2022-10-11T01:27:29.494Z,101741.28
2022-10-11T01:30:18.315Z,101740.31
2022-10-11T01:32:57.048Z,101744.03
2022-10-11T01:35:42.071Z,101739.56
2022-10-11T01:38:27.041Z,101733.03
2022-10-11T01:41:00.252Z,101737.53
2022-10-11T01:43:28.239Z,101735.06
2022-10-11T01:45:58.136Z,101732.41
2022-10-11T01:48:25.039Z,101732.41
2022-10-11T01:50:54.951Z,101731.34
2022-10-11T01:54:03.217Z,101725.34
2022-10-11T01:57:03.458Z,101727.69
2022-10-11T01:59:48.241Z,101726.38
2022-10-11T02:02:41.001Z,101718.50
2022-10-11T02:05:29.449Z,101715.81
2022-10-11T02:08:18.365Z,101717.75
2022-10-11T02:10:51.959Z,101719.81
2022-10-11T02:13:29.841Z,101720.66
2022-10-11T02:16:01.850Z,101720.56
2022-10-11T02:18:36.304Z,101718.91
2022-10-11T02:21:07.128Z,101721.56
2022-10-11T02:23:56.290Z,101714.34
2022-10-11T02:26:24.969Z,101713.53
2022-10-11T02:28:55.808Z,101715.34
2022-10-11T02:31:22.880Z,101712.56
2022-10-11T02:34:17.241Z,101703.50
2022-10-11T02:36:50.754Z,101709.81
2022-10-11T02:39:25.944Z,101708.00
2022-10-11T02:41:56.450Z,101704.63
2022-10-11T02:44:40.458Z,101708.09
2022-10-11T02:47:08.970Z,101711.81
2022-10-11T02:49:36.336Z,101715.38
2022-10-11T02:52:05.781Z,101713.53
2022-10-11T02:54:32.681Z,101709.41
2022-10-11T02:56:59.260Z,101710.38
2022-10-11T02:59:25.878Z,101707.81
2022-10-11T03:01:52.583Z,101709.53
2022-10-11T03:04:19.379Z,101709.25
2022-10-11T03:06:45.949Z,101707.69
2022-10-11T03:09:12.560Z,101702.38
2022-10-11T03:11:39.192Z,101705.81
2022-10-11T03:14:05.833Z,101706.00
2022-10-11T03:16:32.546Z,101701.66
2022-10-11T03:18:59.137Z,101700.91
2022-10-11T03:21:28.044Z,101702.72
2022-10-11T03:23:54.642Z,101702.75
2022-10-11T03:26:21.277Z,101700.91
2022-10-11T03:28:48.066Z,101705.28
2022-10-11T03:31:14.813Z,101711.53
2022-10-11T03:33:41.466Z,101707.03
2022-10-11T03:36:11.108Z,101714.22
2022-10-11T03:38:37.850Z,101702.84
2022-10-11T03:41:04.502Z,101708.81
2022-10-11T03:43:31.615Z,101707.03
2022-10-11T03:45:58.150Z,101703.47
2022-10-11T03:48:24.737Z,101712.44
2022-10-11T03:50:51.306Z,101713.13
2022-10-11T03:53:17.930Z,101720.16
2022-10-11T03:55:44.503Z,101722.97
2022-10-11T03:58:11.083Z,101724.06
2022-10-11T04:00:37.897Z,101718.47
2022-10-11T04:03:04.648Z,101734.69
2022-10-11T04:05:31.624Z,101731.88
2022-10-11T04:07:59.306Z,101727.00
2022-10-11T04:10:26.060Z,101737.28
2022-10-11T04:12:52.651Z,101733.69
2022-10-11T04:15:19.426Z,101737.41
2022-10-11T04:17:46.551Z,101733.19
2022-10-11T04:20:13.179Z,101736.78
2022-10-11T04:22:39.848Z,101727.25
2022-10-11T04:25:08.145Z,101731.69
2022-10-11T04:27:35.241Z,101727.00
2022-10-11T04:30:02.025Z,101720.75
2022-10-11T04:32:28.616Z,101727.97
2022-10-11T04:34:55.384Z,101729.69
2022-10-11T04:37:22.024Z,101728.84
2022-10-11T04:39:48.632Z,101726.41
2022-10-11T04:42:16.398Z,101737.97
2022-10-11T04:44:43.040Z,101736.81
2022-10-11T04:47:09.700Z,101725.47
2022-10-11T04:49:36.383Z,101730.03
2022-10-11T04:52:03.343Z,101736.09
2022-10-11T04:54:30.015Z,101736.81
2022-10-11T04:56:56.722Z,101731.47
2022-10-11T04:59:23.445Z,101736.00
2022-10-11T05:01:50.356Z,101737.78
2022-10-11T05:04:17.163Z,101734.38
2022-10-11T05:06:43.735Z,101723.94
2022-10-11T05:09:10.458Z,101730.78
2022-10-11T05:11:37.187Z,101731.88
2022-10-11T05:14:03.971Z,101731.97
2022-10-11T05:16:31.409Z,101732.03
2022-10-11T05:18:58.061Z,101728.94
2022-10-11T05:21:29.310Z,101737.09
2022-10-11T05:23:56.941Z,101733.72
2022-10-11T05:26:27.295Z,101726.41
2022-10-11T05:28:55.200Z,101746.81
2022-10-11T05:31:22.252Z,101745.09
2022-10-11T05:33:48.911Z,101747.63
2022-10-11T05:36:15.756Z,101750.28
2022-10-11T05:38:42.470Z,101745.88
2022-10-11T05:41:10.578Z,101751.28
2022-10-11T05:43:37.257Z,101758.41
2022-10-11T05:46:04.303Z,101757.66
2022-10-11T05:48:31.110Z,101767.44
2022-10-11T05:51:06.364Z,101764.66
2022-10-11T05:53:33.399Z,101770.09
2022-10-11T05:56:00.259Z,101777.22
2022-10-11T05:58:27.415Z,101775.50
2022-10-11T06:00:54.826Z,101764.97
2022-10-11T06:03:21.602Z,101785.13
2022-10-11T06:05:50.401Z,101784.13
2022-10-11T06:08:18.799Z,101781.34
2022-10-11T06:10:45.547Z,101785.72
2022-10-11T06:13:12.181Z,101785.81
2022-10-11T06:15:39.512Z,101782.13
2022-10-11T06:18:06.480Z,101786.38
2022-10-11T06:20:33.094Z,101790.84
2022-10-11T06:22:59.859Z,101795.94
2022-10-11T06:25:26.485Z,101794.19
2022-10-11T06:27:53.121Z,101795.19
2022-10-11T06:30:19.847Z,101797.75
2022-10-11T06:32:46.403Z,101801.34
2022-10-11T06:35:13.464Z,101798.72
2022-10-11T06:37:40.183Z,101803.84
2022-10-11T06:40:07.418Z,101807.31
2022-10-11T06:42:34.082Z,101810.50
2022-10-11T06:45:00.669Z,101807.69
2022-10-11T06:47:27.451Z,101810.88
2022-10-11T06:49:54.227Z,101809.28
2022-10-11T06:52:20.840Z,101813.75
2022-10-11T06:54:47.496Z,101811.72
2022-10-11T06:57:14.217Z,101803.66
2022-10-11T06:59:42.954Z,101814.25
2022-10-11T07:02:10.315Z,101811.53
2022-10-11T07:04:37.150Z,101813.22
2022-10-11T07:07:03.837Z,101811.59
2022-10-11T07:09:30.962Z,101812.84
2022-10-11T07:11:57.692Z,101816.47
2022-10-11T07:14:24.369Z,101810.34
2022-10-11T07:16:51.016Z,101815.63
2022-10-11T07:19:17.652Z,101807.22
2022-10-11T07:21:44.387Z,101813.63
2022-10-11T07:24:11.022Z,101825.84
2022-10-11T07:26:38.809Z,101814.16
2022-10-11T07:29:10.043Z,101820.78
2022-10-11T07:31:38.724Z,101814.84
2022-10-11T07:34:05.571Z,101830.66
2022-10-11T07:36:32.283Z,101825.41
2022-10-11T07:39:01.404Z,101833.19
2022-10-11T07:41:28.335Z,101840.19
2022-10-11T07:43:55.216Z,101836.53
2022-10-11T07:46:22.059Z,101837.53
2022-10-11T07:48:50.231Z,101841.03
2022-10-11T07:51:22.795Z,101836.44
2022-10-11T07:53:57.276Z,101841.38
2022-10-11T07:56:28.725Z,101842.44
2022-10-11T07:59:00.853Z,101838.59
2022-10-11T08:01:31.286Z,101830.78
2022-10-11T08:03:59.103Z,101842.00
2022-10-11T08:06:30.340Z,101825.88
2022-10-11T08:08:58.755Z,101833.91
2022-10-11T08:11:28.607Z,101835.66
2022-10-11T08:13:57.724Z,101828.88
2022-10-11T08:16:24.568Z,101836.19
2022-10-11T08:18:51.476Z,101830.22
2022-10-11T08:21:19.072Z,101838.72
2022-10-11T08:23:46.180Z,101835.00
2022-10-11T08:26:12.936Z,101832.41
2022-10-11T08:28:39.814Z,101832.28
2022-10-11T08:31:07.573Z,101837.38
2022-10-11T08:33:34.313Z,101835.22
2022-10-11T08:36:05.384Z,101846.13
2022-10-11T08:38:33.099Z,101839.69
2022-10-11T08:41:01.323Z,101832.91
2022-10-11T08:43:53.095Z,101845.63
2022-10-11T08:46:26.020Z,101838.25
2022-10-11T08:48:53.380Z,101838.88
2022-10-11T08:51:25.537Z,101841.84
2022-10-11T08:54:00.545Z,101839.81
2022-10-11T08:56:32.596Z,101843.91
2022-10-11T08:59:06.920Z,101839.66
2022-10-11T09:01:36.097Z,101841.00
2022-10-11T09:04:04.070Z,101834.41
2022-10-11T09:06:38.603Z,101842.09
2022-10-11T09:09:17.795Z,101833.63
2022-10-11T09:12:14.205Z,101836.53
2022-10-11T09:14:54.326Z,101839.69
2022-10-11T09:17:39.557Z,101834.34
2022-10-11T09:20:18.367Z,101833.38
2022-10-11T09:22:56.891Z,101843.53
2022-10-11T09:25:33.707Z,101834.28
2022-10-11T09:28:04.160Z,101827.34
2022-10-11T09:30:33.114Z,101832.25
2022-10-11T09:33:10.540Z,101824.44
2022-10-11T09:35:42.774Z,101824.69
2022-10-11T09:38:21.568Z,101823.22
2022-10-11T09:40:59.107Z,101829.16
2022-10-11T09:43:25.847Z,101827.81
2022-10-11T09:45:52.489Z,101820.84
2022-10-11T09:48:27.473Z,101816.16
2022-10-11T09:51:08.468Z,101820.94
2022-10-11T09:53:57.535Z,101815.19
2022-10-11T09:56:28.129Z,101814.69
2022-10-11T09:59:09.213Z,101812.88
2022-10-11T10:01:36.782Z,101810.31
2022-10-11T10:04:12.896Z,101817.94
2022-10-11T10:06:40.293Z,101818.56
2022-10-11T10:09:31.110Z,101821.41
2022-10-11T10:11:58.159Z,101816.00
2022-10-11T10:14:29.014Z,101823.69
2022-10-11T10:17:15.656Z,101823.69
2022-10-11T10:19:57.002Z,101818.66
2022-10-11T10:22:27.483Z,101822.31
2022-10-11T10:24:56.206Z,101824.00
2022-10-11T10:27:28.589Z,101821.69
2022-10-11T10:30:15.864Z,101825.06
2022-10-11T10:32:51.129Z,101817.84
2022-10-11T10:35:41.919Z,101823.72
2022-10-11T10:38:19.125Z,101822.91
2022-10-11T10:40:52.145Z,101824.50
2022-10-11T10:43:24.564Z,101820.22
2022-10-11T10:46:16.205Z,101813.50
2022-10-11T10:49:34.402Z,101818.72
2022-10-11T10:52:06.914Z,101809.78
2022-10-11T10:54:56.824Z,101811.16
2022-10-11T10:57:46.133Z,101806.91
2022-10-11T11:00:19.545Z,101800.94
2022-10-11T11:03:05.860Z,101792.59
2022-10-11T11:05:48.404Z,101807.41
2022-10-11T11:08:43.237Z,101811.72
2022-10-11T11:11:43.203Z,101813.69
2022-10-11T11:14:45.242Z,101804.53
2022-10-11T11:17:35.744Z,101794.69
2022-10-11T11:20:14.509Z,101802.69
2022-10-11T11:22:51.077Z,101798.88
2022-10-11T11:25:44.827Z,101797.72
2022-10-11T11:28:27.053Z,101798.59
2022-10-11T11:31:09.003Z,101790.97
2022-10-11T11:33:59.470Z,101796.50
2022-10-11T11:36:47.217Z,101783.28
2022-10-11T11:39:26.221Z,101791.72
2022-10-11T11:42:01.545Z,101782.97
2022-10-11T11:44:35.913Z,101776.22
2022-10-11T11:47:31.410Z,101777.94
2022-10-11T11:50:25.038Z,101784.06
2022-10-11T11:53:00.069Z,101776.63
2022-10-11T11:56:13.821Z,101776.38
2022-10-11T11:59:06.626Z,101775.13
2022-10-11T12:01:43.916Z,101774.06
2022-10-11T12:04:37.135Z,101772.28
2022-10-11T12:07:16.416Z,101778.06
2022-10-11T12:09:50.628Z,101778.44
2022-10-11T12:12:36.460Z,101767.91
2022-10-11T12:15:18.694Z,101769.09
2022-10-11T12:18:03.295Z,101763.41
2022-10-11T12:20:32.637Z,101756.25
2022-10-11T12:23:04.384Z,101758.03
2022-10-11T12:25:39.930Z,101756.31
2022-10-11T12:28:37.829Z,101758.22
2022-10-11T12:31:16.870Z,101760.94
2022-10-11T12:34:03.982Z,101758.50
2022-10-11T12:36:50.295Z,101752.34
2022-10-11T12:39:19.911Z,101748.19
2022-10-11T12:42:07.101Z,101749.50
2022-10-11T12:44:36.327Z,101748.56
2022-10-11T12:47:36.069Z,101741.19
2022-10-11T12:50:03.159Z,101742.56
2022-10-11T12:54:57.093Z,101733.56
2022-10-11T12:57:57.268Z,101737.50
2022-10-11T13:00:31.766Z,101734.34
2022-10-11T13:03:04.999Z,101745.66
2022-10-11T13:05:45.012Z,101737.50
2022-10-11T13:08:19.018Z,101744.69
2022-10-11T13:10:47.698Z,101742.31
2022-10-11T13:13:22.966Z,101743.53
2022-10-11T13:15:52.209Z,101735.91
2022-10-11T13:18:22.394Z,101734.34
2022-10-11T13:20:50.417Z,101734.34
2022-10-11T13:23:29.454Z,101739.84
2022-10-11T13:25:57.360Z,101734.16
2022-10-11T13:28:24.341Z,101732.25
2022-10-11T13:30:57.741Z,101730.84
2022-10-11T13:33:33.970Z,101737.09
2022-10-11T13:36:03.981Z,101738.31
2022-10-11T13:38:34.152Z,101738.47
2022-10-11T13:41:07.510Z,101733.97
2022-10-11T13:43:35.206Z,101730.25
2022-10-11T13:46:05.191Z,101726.41
2022-10-11T13:48:38.746Z,101720.47
2022-10-11T13:51:30.217Z,101721.56
2022-10-11T13:54:01.031Z,101719.56
2022-10-11T13:56:29.963Z,101712.81
2022-10-11T13:58:56.786Z,101711.47
2022-10-11T14:01:27.986Z,101711.34
2022-10-11T14:04:01.421Z,101715.53
2022-10-11T14:06:51.431Z,101711.72
2022-10-11T14:09:33.942Z,101708.44
2022-10-11T14:12:40.746Z,101704.47
2022-10-11T14:15:26.210Z,101702.06
2022-10-11T14:17:53.191Z,101693.97
2022-10-11T14:20:40.208Z,101696.38
2022-10-11T14:23:07.509Z,101702.78
2022-10-11T14:25:34.694Z,101693.84
2022-10-11T14:28:02.638Z,101691.19
2022-10-11T14:30:31.750Z,101690.38
2022-10-11T14:33:01.739Z,101689.63
2022-10-11T14:35:32.272Z,101684.28
2022-10-11T14:37:59.089Z,101694.38
2022-10-11T14:40:29.925Z,101690.13
2022-10-11T14:42:57.046Z,101692.03
2022-10-11T14:45:23.835Z,101687.66
2022-10-11T14:47:52.465Z,101689.31
2022-10-11T14:50:42.660Z,101688.13
2022-10-11T14:53:10.474Z,101683.38
2022-10-11T14:55:39.654Z,101688.28
2022-10-11T14:58:09.502Z,101692.50
2022-10-11T15:00:37.251Z,101693.69
2022-10-11T15:03:05.290Z,101691.34
2022-10-11T15:05:34.250Z,101689.38
2022-10-11T15:08:02.277Z,101690.16
2022-10-11T15:10:33.952Z,101689.38
2022-10-11T15:13:02.711Z,101689.97
2022-10-11T15:15:32.763Z,101683.66
2022-10-11T15:18:01.283Z,101681.94
2022-10-11T15:20:31.618Z,101682.78
2022-10-11T15:22:59.440Z,101686.66
2022-10-11T15:25:27.633Z,101681.13
2022-10-11T15:27:54.296Z,101687.28
2022-10-11T15:30:22.486Z,101692.31
2022-10-11T15:32:50.133Z,101687.47
2022-10-11T15:35:17.792Z,101689.63
2022-10-11T15:37:44.953Z,101694.34
2022-10-11T15:40:19.582Z,101691.50
2022-10-11T15:42:47.041Z,101698.06
2022-10-11T15:45:15.048Z,101699.97
2022-10-11T15:47:41.736Z,101689.78
2022-10-11T15:50:36.822Z,101689.66
2022-10-11T15:53:16.350Z,101689.78
2022-10-11T15:55:49.678Z,101689.63
2022-10-11T15:58:29.050Z,101685.88
2022-10-11T16:00:57.601Z,101694.34
2022-10-11T16:03:29.786Z,101689.84
2022-10-11T16:06:01.079Z,101686.81
2022-10-11T16:08:30.770Z,101686.97
2022-10-11T16:10:59.455Z,101681.13
2022-10-11T16:13:26.417Z,101683.97
2022-10-11T16:15:53.335Z,101683.28
2022-10-11T16:18:22.215Z,101682.31
2022-10-11T16:20:51.935Z,101685.16
2022-10-11T16:23:20.243Z,101679.47
2022-10-11T16:25:56.208Z,101678.63
2022-10-11T16:28:23.869Z,101675.25
2022-10-11T16:30:50.683Z,101677.13
2022-10-11T16:33:17.428Z,101671.72
2022-10-11T16:35:44.354Z,101678.88
2022-10-11T16:38:12.869Z,101676.28
2022-10-11T16:40:40.341Z,101682.91
2022-10-11T16:43:08.071Z,101686.75
2022-10-11T16:45:41.974Z,101687.78
2022-10-11T16:48:08.607Z,101683.97
2022-10-11T16:50:39.243Z,101688.84
2022-10-11T16:53:06.477Z,101687.44
2022-10-11T16:55:33.287Z,101693.81
2022-10-11T16:58:00.012Z,101696.63
2022-10-11T17:03:08.727Z,101704.25
2022-10-11T17:05:37.052Z,101704.59
2022-10-11T17:08:03.750Z,101705.84
2022-10-11T17:10:39.664Z,101701.34
2022-10-11T17:13:07.438Z,101699.94
2022-10-11T17:15:36.038Z,101702.97
2022-10-11T17:18:03.498Z,101705.94
2022-10-11T17:20:30.367Z,101706.94
2022-10-11T17:22:58.070Z,101707.94
2022-10-11T17:25:25.371Z,101702.59
2022-10-11T17:27:55.737Z,101713.22
2022-10-11T17:30:23.729Z,101709.03
2022-10-11T17:32:53.589Z,101712.00
2022-10-11T17:35:20.412Z,101722.31
2022-10-11T17:37:47.144Z,101715.59
2022-10-11T17:40:14.110Z,101717.56
2022-10-11T17:42:41.266Z,101723.66
2022-10-11T17:45:08.322Z,101726.75
2022-10-11T17:47:35.444Z,101728.38
2022-10-11T17:50:02.321Z,101731.25
2022-10-11T17:52:30.109Z,101730.53
2022-10-11T17:54:56.963Z,101735.59
2022-10-11T17:57:23.642Z,101737.66
2022-10-11T17:59:50.637Z,101733.50
2022-10-11T18:02:19.815Z,101738.25
2022-10-11T18:04:46.750Z,101732.31
2022-10-11T18:07:13.623Z,101740.53
2022-10-11T18:09:41.889Z,101738.56
2022-10-11T18:12:08.673Z,101737.66
2022-10-11T18:14:35.889Z,101733.19
2022-10-11T18:17:02.851Z,101736.91
2022-10-11T18:19:29.864Z,101734.25
2022-10-11T18:21:56.782Z,101733.03
2022-10-11T18:24:23.869Z,101732.97
2022-10-11T18:26:51.840Z,101740.59
2022-10-11T18:29:18.803Z,101728.97
2022-10-11T18:31:46.726Z,101723.97
2022-10-11T18:34:14.405Z,101728.13
2022-10-11T18:36:43.071Z,101729.38
2022-10-11T18:39:13.358Z,101733.50
2022-10-11T18:41:45.783Z,101740.19
2022-10-11T18:44:35.277Z,101735.25
2022-10-11T18:47:03.210Z,101738.69
2022-10-11T18:49:32.858Z,101729.09
2022-10-11T18:51:59.858Z,101732.59
2022-10-11T18:54:27.037Z,101745.41
2022-10-11T18:56:55.260Z,101751.09
2022-10-11T18:59:23.741Z,101749.53
2022-10-11T19:01:53.716Z,101752.19
2022-10-11T19:04:20.885Z,101756.00
2022-10-11T19:06:50.631Z,101746.09
2022-10-11T19:09:22.184Z,101754.34
2022-10-11T19:11:55.889Z,101754.69
2022-10-11T19:14:30.357Z,101760.03
2022-10-11T19:16:57.838Z,101754.94
2022-10-11T19:19:27.238Z,101757.84
2022-10-11T19:21:54.463Z,101759.88
2022-10-11T19:24:23.775Z,101756.38
2022-10-11T19:26:58.391Z,101757.19
2022-10-11T19:29:28.958Z,101755.31
2022-10-11T19:32:00.788Z,101754.16
2022-10-11T19:34:28.147Z,101755.31
2022-10-11T19:36:56.577Z,101760.97
2022-10-11T19:39:24.797Z,101761.94
2022-10-11T19:41:53.287Z,101762.19
2022-10-11T19:44:20.611Z,101759.94
2022-10-11T19:46:52.782Z,101757.91
2022-10-11T19:49:24.133Z,101758.72
2022-10-11T19:51:55.334Z,101762.19
2022-10-11T19:54:23.613Z,101762.84
2022-10-11T19:56:51.743Z,101761.22
2022-10-11T19:59:19.112Z,101763.53
2022-10-11T20:01:51.899Z,101763.22
2022-10-11T20:04:51.013Z,101760.88
2022-10-11T20:07:07.753Z,101764.78
2022-10-11T20:09:35.267Z,101772.03
2022-10-11T20:12:04.493Z,101772.97
2022-10-11T20:14:31.722Z,101770.63
2022-10-11T20:16:58.524Z,101766.25
2022-10-11T20:19:31.352Z,101776.88
2022-10-11T20:21:59.124Z,101770.94
2022-10-11T20:24:29.090Z,101770.69
2022-10-11T20:26:56.471Z,101768.38
2022-10-11T20:29:27.138Z,101781.69
2022-10-11T20:31:53.907Z,101775.69
2022-10-11T20:34:20.552Z,101779.63
2022-10-11T20:36:49.239Z,101787.19
2022-10-11T20:39:16.506Z,101788.25
2022-10-11T20:41:54.036Z,101791.72
2022-10-11T20:44:29.489Z,101789.75
2022-10-11T20:47:03.709Z,101797.56
2022-10-11T20:49:36.409Z,101803.84
2022-10-11T20:52:08.565Z,101805.59
2022-10-11T20:54:41.038Z,101819.06
2022-10-11T20:57:10.880Z,101812.25
2022-10-11T20:59:40.872Z,101820.47
2022-10-11T21:02:16.654Z,101819.13
2022-10-11T21:04:50.165Z,101812.19
2022-10-11T21:07:17.485Z,101816.63
2022-10-11T21:09:45.711Z,101819.63
2022-10-11T21:12:12.931Z,101814.19
2022-10-11T21:14:39.615Z,101813.00
2022-10-11T21:17:06.568Z,101816.44
2022-10-11T21:19:33.256Z,101811.13
2022-10-11T21:21:59.908Z,101818.31
2022-10-11T21:24:26.727Z,101821.34
2022-10-11T21:26:58.149Z,101821.53
2022-10-11T21:29:27.622Z,101818.84
2022-10-11T21:31:56.597Z,101819.72
2022-10-11T21:34:23.419Z,101816.34
2022-10-11T21:36:50.487Z,101816.31
2022-10-11T21:39:20.148Z,101812.69
2022-10-11T21:41:47.062Z,101808.22
2022-10-11T21:44:15.834Z,101810.53
2022-10-11T21:49:31.152Z,101806.31
2022-10-11T21:52:05.884Z,101805.59
2022-10-11T21:54:32.613Z,101818.16
2022-10-11T21:56:59.435Z,101816.03
2022-10-11T21:59:26.154Z,101811.22
2022-10-11T22:01:52.795Z,101812.22
2022-10-11T22:04:19.831Z,101816.34
2022-10-11T22:06:46.434Z,101815.75
2022-10-11T22:09:13.338Z,101813.50
2022-10-11T22:11:40.834Z,101816.06
2022-10-11T22:14:07.634Z,101819.66
2022-10-11T22:16:35.339Z,101820.16
2022-10-11T22:19:02.270Z,101808.84
2022-10-11T22:21:29.021Z,101815.09
2022-10-11T22:23:55.648Z,101820.66
2022-10-11T22:26:25.680Z,101819.88
2022-10-11T22:28:53.542Z,101814.56
2022-10-11T22:31:21.794Z,101822.88
2022-10-11T22:33:54.002Z,101810.03
2022-10-11T22:36:20.957Z,101817.13
2022-10-11T22:38:47.787Z,101819.97
2022-10-11T22:41:14.731Z,101817.31
2022-10-11T22:43:42.349Z,101810.41
2022-10-11T22:46:09.651Z,101812.25
2022-10-11T22:48:36.403Z,101810.09
2022-10-11T22:51:03.664Z,101811.41
2022-10-11T22:53:31.001Z,101807.84
2022-10-11T22:55:58.165Z,101807.25
2022-10-11T22:58:26.252Z,101813.59
2022-10-11T23:00:53.169Z,101810.88
2022-10-11T23:03:20.156Z,101811.81
2022-10-11T23:05:57.481Z,101815.97
2022-10-11T23:08:24.746Z,101812.88
2022-10-11T23:10:52.276Z,101816.47
2022-10-11T23:13:20.080Z,101817.66
2022-10-11T23:15:47.053Z,101815.41
2022-10-11T23:18:15.924Z,101815.19
2022-10-11T23:20:42.919Z,101821.50
2022-10-11T23:23:09.627Z,101820.78
2022-10-11T23:25:36.836Z,101829.03
2022-10-11T23:28:03.812Z,101830.34
2022-10-11T23:30:30.891Z,101820.59
2022-10-11T23:32:57.775Z,101828.09
2022-10-11T23:35:24.827Z,101827.31
2022-10-11T23:37:54.196Z,101827.44
2022-10-11T23:40:21.096Z,101829.59
2022-10-11T23:42:49.067Z,101827.63
2022-10-11T23:45:16.222Z,101827.94
2022-10-11T23:47:43.177Z,101822.34
2022-10-11T23:50:10.319Z,101825.28
2022-10-11T23:52:38.375Z,101830.06
2022-10-11T23:55:05.373Z,101828.63
2022-10-11T23:57:33.286Z,101819.91
2022-10-11T23:59:59.955Z,101832.44
